LFLV

Vichy-Charmeil Airport

Airport
ICAO code
LFLV
IATA Code
VHY
Summary
ICAO Region
EUR
ICAO Territory
Location

, Auvergne

Serving
Vichy
Elevation
817 ft
Coordinates
46° 10' 11" N , 3° 24' 13" E
Metar
LFLV 200830Z AUTO VRB01KT 9999 BKN014 BKN020 OVC041 07/06 Q1033

Runways

Designator Length Width Surface Rops
1/19 2200 45 ASP No/No

Airport map

Aerial View

SKYbrary Partners:

Safety knowledge contributed by: